Time;durP1;ratioP1;P1;durP2;ratioP2;P2;SDS_P1;SDS_P2;PMS_P1;PMS_P2;Temp;Humidity;BMP_temperature;BMP_pressure;BME280_temperature;BME280_humidity;BME280_pressure;Samples;Min_cycle;Max_cycle;Signal;HPM_P1;HPM_P2
2021/01/03 00:00:28;;;;;;;6.40;4.18;;;;;;;0.69;79.33;98107.00;5073645;28;20025;-72
2021/01/03 00:02:54;;;;;;;9.02;4.45;;;;;;;0.53;79.49;98081.94;5067667;28;20097;-71
2021/01/03 00:05:23;;;;;;;8.38;4.30;;;;;;;0.70;79.49;98100.66;5053452;28;20017;-72
2021/01/03 00:07:48;;;;;;;9.13;4.65;;;;;;;0.63;79.49;98084.50;5056762;28;20048;-71
2021/01/03 00:10:15;;;;;;;10.13;4.50;;;;;;;0.72;79.20;98096.03;5073151;28;20509;-71
2021/01/03 00:12:41;;;;;;;8.15;4.38;;;;;;;0.76;79.23;98090.22;5073896;28;20025;-72
2021/01/03 00:15:10;;;;;;;9.82;4.70;;;;;;;0.72;78.62;98082.72;5063023;28;20033;-71
2021/01/03 00:17:35;;;;;;;;;;;;;;;0.73;78.81;98087.84;5053314;28;20652;-73
2021/01/03 00:20:00;;;;;;;7.78;4.28;;;;;;;0.75;79.35;98093.88;5068668;28;19927;-72
2021/01/03 00:22:26;;;;;;;7.45;4.35;;;;;;;0.70;79.07;98090.00;5053921;28;20485;-72
2021/01/03 00:24:51;;;;;;;11.18;5.15;;;;;;;0.61;79.20;98076.66;5054025;28;20039;-72
2021/01/03 00:27:17;;;;;;;7.22;4.38;;;;;;;0.68;79.26;98086.66;5052496;28;20037;-72
2021/01/03 00:29:42;;;;;;;10.93;5.03;;;;;;;0.62;78.95;98067.66;5057099;28;20443;-72
2021/01/03 00:32:07;;;;;;;9.07;4.72;;;;;;;0.66;79.35;98084.19;5064078;28;20032;-72
2021/01/03 00:34:33;;;;;;;8.63;4.68;;;;;;;0.66;79.53;98086.84;5063327;28;20048;-72
2021/01/03 00:36:58;;;;;;;7.22;4.60;;;;;;;0.55;79.21;98069.31;5070727;28;20037;-72
2021/01/03 00:39:23;;;;;;;8.80;4.32;;;;;;;0.65;79.60;98082.50;5054687;28;20395;-72
2021/01/03 00:41:50;;;;;;;9.23;5.10;;;;;;;0.55;79.35;98069.31;5053317;28;20402;-71
2021/01/03 00:44:16;;;;;;;9.55;4.82;;;;;;;0.54;79.70;98077.44;5068304;28;20032;-71
2021/01/03 00:46:41;;;;;;;8.93;4.30;;;;;;;0.59;79.62;98083.97;5060758;28;20048;-72
2021/01/03 00:49:07;;;;;;;8.35;4.78;;;;;;;0.61;79.54;98079.31;5054328;28;20032;-72
2021/01/03 00:51:32;;;;;;;7.53;4.47;;;;;;;0.74;79.52;98075.41;5053145;28;20028;-74
2021/01/03 00:53:58;;;;;;;8.00;4.28;;;;;;;0.59;79.17;98065.34;5053477;28;20032;-72
2021/01/03 00:56:24;;;;;;;7.03;4.18;;;;;;;0.74;78.72;98078.91;5054520;28;20483;-72
2021/01/03 00:58:49;;;;;;;8.82;4.78;;;;;;;0.61;79.45;98084.66;5054350;28;20029;-73
2021/01/03 01:01:14;;;;;;;8.95;4.70;;;;;;;0.64;79.62;98087.00;5054863;28;20044;-73
2021/01/03 01:03:40;;;;;;;9.02;4.47;;;;;;;0.62;78.75;98082.81;5054612;28;20041;-70
2021/01/03 01:06:05;;;;;;;8.20;4.60;;;;;;;0.59;79.40;98064.50;5057415;28;20040;-70
2021/01/03 01:08:30;;;;;;;8.68;4.50;;;;;;;0.48;79.60;98067.44;5067374;28;20051;-74
2021/01/03 01:10:56;;;;;;;9.15;4.93;;;;;;;0.61;79.71;98089.97;5078712;28;20078;-73
2021/01/03 01:13:21;;;;;;;8.45;5.20;;;;;;;0.61;79.26;98094.47;5085568;28;20474;-74
2021/01/03 01:15:46;;;;;;;8.60;4.60;;;;;;;0.66;79.44;98086.84;5083506;28;20028;-72
2021/01/03 01:18:12;;;;;;;8.40;5.03;;;;;;;0.65;79.27;98085.16;5083178;28;20032;-72
2021/01/03 01:20:37;;;;;;;9.77;4.95;;;;;;;0.61;79.59;98079.31;5086734;28;20031;-74
2021/01/03 01:23:03;;;;;;;8.00;4.60;;;;;;;0.54;79.33;98083.59;5078074;28;20062;-73
2021/01/03 01:25:31;;;;;;;10.13;4.78;;;;;;;0.61;79.93;98087.31;5072959;28;20089;-73
2021/01/03 01:27:57;;;;;;;9.43;4.32;;;;;;;0.65;79.76;98096.66;5073715;28;20139;-72
2021/01/03 01:30:24;;;;;;;8.80;5.10;;;;;;;0.56;79.90;98081.63;5072162;28;20060;-72
2021/01/03 01:32:50;;;;;;;10.00;4.97;;;;;;;0.51;80.00;98075.94;5072220;28;20048;-73
2021/01/03 01:35:20;;;;;;;12.15;5.68;;;;;;;0.58;79.91;98092.13;5073511;28;20032;-73
2021/01/03 01:37:45;;;;;;;11.65;5.68;;;;;;;0.52;79.92;98085.56;5073099;28;20028;-73
2021/01/03 01:40:13;;;;;;;8.95;5.28;;;;;;;0.55;80.14;98087.09;5073587;28;20478;-71
2021/01/03 01:42:39;;;;;;;9.18;5.10;;;;;;;0.56;80.69;98089.59;5073270;28;20028;-71
2021/01/03 01:45:09;;;;;;;11.50;5.50;;;;;;;0.48;80.36;98072.78;5073218;28;20108;-72
2021/01/03 01:47:39;;;;;;;8.50;5.15;;;;;;;0.55;80.57;98073.78;5073026;28;20021;-73
2021/01/03 01:50:09;;;;;;;10.20;5.18;;;;;;;0.69;80.64;98093.69;5071125;28;20017;-72
2021/01/03 01:52:39;;;;;;;10.10;5.57;;;;;;;0.63;80.58;98089.81;5073083;28;20100;-72
2021/01/03 01:55:10;;;;;;;11.05;6.05;;;;;;;0.60;80.88;98093.63;5073108;28;20052;-73
2021/01/03 01:57:51;;;;;;;10.23;5.55;;;;;;;0.50;81.03;98092.91;5071743;28;20111;-74
2021/01/03 02:00:21;;;;;;;10.55;5.97;;;;;;;0.47;80.95;98076.41;5073081;28;20112;-71
2021/01/03 02:02:56;;;;;;;11.27;5.97;;;;;;;0.58;81.75;98097.44;5072948;28;20051;-73
2021/01/03 02:05:36;;;;;;;9.93;5.72;;;;;;;0.49;81.87;98095.72;5071585;28;20489;-72
2021/01/03 02:08:17;;;;;;;11.88;6.45;;;;;;;0.41;82.76;98099.16;5072943;28;20494;-72
2021/01/03 02:10:45;;;;;;;9.68;5.72;;;;;;;0.35;83.30;98105.94;5067803;28;20087;-74
2021/01/03 02:13:16;;;;;;;9.63;5.72;;;;;;;0.34;83.60;98106.09;5052731;28;20033;-73
2021/01/03 02:15:42;;;;;;;11.20;5.82;;;;;;;0.28;84.50;98104.06;5052892;28;20028;-72
2021/01/03 02:18:09;;;;;;;10.73;6.93;;;;;;;0.21;84.86;98099.38;5052717;28;20570;-71
2021/01/03 02:20:45;;;;;;;12.43;6.70;;;;;;;0.14;85.22;98097.47;5060767;28;20135;-72
2021/01/03 02:23:13;;;;;;;14.00;7.13;;;;;;;0.07;86.32;98097.25;5072670;28;20506;-74
2021/01/03 02:25:39;;;;;;;13.23;6.82;;;;;;;-0.01;86.66;98089.22;5073169;28;20028;-74
2021/01/03 02:28:22;;;;;;;14.90;7.70;;;;;;;-0.05;86.77;98091.34;5071402;28;20025;-71
2021/01/03 02:30:53;;;;;;;12.23;6.55;;;;;;;-0.11;87.22;98083.16;5072809;28;20025;-72
2021/01/03 02:33:31;;;;;;;14.07;7.55;;;;;;;0.01;87.16;98105.84;5072993;28;20029;-71
2021/01/03 02:36:06;;;;;;;13.45;6.85;;;;;;;-0.14;87.43;98088.78;5071511;28;20044;-72
2021/01/03 02:38:35;;;;;;;14.63;7.78;;;;;;;-0.19;88.42;98096.38;5072403;28;20029;-75
2021/01/03 02:41:01;;;;;;;15.65;7.72;;;;;;;-0.22;88.57;98098.34;5072121;28;20028;-72
2021/01/03 02:43:26;;;;;;;13.05;7.22;;;;;;;-0.23;88.83;98086.03;5072071;28;20534;-72
2021/01/03 02:45:53;;;;;;;15.15;7.80;;;;;;;-0.39;89.03;98069.97;5071834;28;20490;-72
2021/01/03 02:48:23;;;;;;;15.95;8.32;;;;;;;-0.24;89.36;98100.34;5072577;28;20031;-72
2021/01/03 02:50:48;;;;;;;13.93;7.78;;;;;;;-0.32;89.53;98097.56;5072799;28;20041;-72
2021/01/03 02:53:15;;;;;;;14.63;8.23;;;;;;;-0.26;89.56;98091.66;5072811;28;20023;-72
2021/01/03 02:55:40;;;;;;;16.38;7.50;;;;;;;-0.30;89.82;98092.94;5072418;28;20058;-72
2021/01/03 02:58:06;;;;;;;18.98;8.20;;;;;;;-0.31;89.62;98080.66;5072449;28;20024;-72
2021/01/03 03:00:34;;;;;;;14.52;8.43;;;;;;;-0.20;89.25;98098.19;5071295;28;20033;-73
2021/01/03 03:03:00;;;;;;;17.83;8.83;;;;;;;-0.45;89.30;98065.22;5071277;28;20024;-72
2021/01/03 03:05:26;;;;;;;16.05;8.23;;;;;;;-0.45;89.42;98068.75;5072339;28;20086;-72
2021/01/03 03:07:52;;;;;;;13.13;7.93;;;;;;;-0.32;89.72;98096.75;5072585;28;20039;-73
2021/01/03 03:10:19;;;;;;;15.95;8.82;;;;;;;-0.37;89.82;98094.53;5072650;28;20060;-73
2021/01/03 03:12:53;;;;;;;15.73;8.32;;;;;;;-0.37;89.81;98083.91;5072126;28;20398;-72
2021/01/03 03:15:21;;;;;;;14.38;8.38;;;;;;;-0.28;89.88;98087.50;5072121;28;20032;-71
2021/01/03 03:17:47;;;;;;;15.38;8.68;;;;;;;-0.33;90.02;98087.13;5069930;28;20029;-72
2021/01/03 03:20:14;;;;;;;15.57;8.70;;;;;;;-0.32;89.80;98092.25;5057456;28;20065;-72
2021/01/03 03:22:39;;;;;;;14.48;7.75;;;;;;;-0.30;89.57;98087.63;5050795;28;20040;-72
2021/01/03 03:25:06;;;;;;;15.55;8.57;;;;;;;-0.30;89.91;98094.78;5052364;28;20033;-72
2021/01/03 03:27:32;;;;;;;15.88;8.43;;;;;;;-0.34;89.78;98088.09;5070444;28;20036;-72
2021/01/03 03:29:57;;;;;;;15.85;8.80;;;;;;;-0.29;90.16;98083.16;5054561;28;20039;-72
2021/01/03 03:32:23;;;;;;;16.92;9.15;;;;;;;-0.38;89.89;98087.56;5072278;28;20028;-72
2021/01/03 03:34:48;;;;;;;16.42;9.15;;;;;;;-0.36;90.24;98076.78;5062271;28;20391;-72
2021/01/03 03:37:13;;;;;;;15.38;8.38;;;;;;;-0.38;89.98;98087.56;5060577;28;20471;-72
2021/01/03 03:39:39;;;;;;;17.90;9.13;;;;;;;-0.38;89.87;98078.75;5051809;28;20029;-72
2021/01/03 03:42:04;;;;;;;15.40;9.30;;;;;;;-0.44;90.04;98056.28;5053891;28;20438;-72
2021/01/03 03:44:30;;;;;;;18.88;8.77;;;;;;;-0.35;90.13;98075.78;5052851;28;20067;-72
2021/01/03 03:46:58;;;;;;;15.38;9.02;;;;;;;-0.45;90.08;98068.75;5064354;28;20024;-72
2021/01/03 03:49:24;;;;;;;15.77;9.05;;;;;;;-0.44;90.51;98066.91;5072028;28;20062;-72
2021/01/03 03:51:57;;;;;;;18.80;9.15;;;;;;;-0.34;90.21;98064.16;5072125;28;20028;-72
2021/01/03 03:54:23;;;;;;;20.15;9.30;;;;;;;-0.35;90.03;98071.31;5066089;28;20542;-72
2021/01/03 03:56:53;;;;;;;18.33;9.15;;;;;;;-0.42;90.25;98058.78;5062193;28;20391;-72
2021/01/03 03:59:19;;;;;;;16.25;9.23;;;;;;;-0.42;90.09;98062.25;5052238;28;20032;-72
2021/01/03 04:01:44;;;;;;;16.80;9.60;;;;;;;-0.42;90.68;98058.78;5067653;28;20050;-72
2021/01/03 04:04:10;;;;;;;18.73;9.52;;;;;;;-0.38;90.41;98062.81;5085834;28;20025;-72
2021/01/03 04:06:36;;;;;;;19.17;9.65;;;;;;;-0.42;90.35;98054.28;5084422;28;20017;-71
2021/01/03 04:09:01;;;;;;;16.52;8.52;;;;;;;-0.52;90.37;98042.94;5090313;28;20012;-72
2021/01/03 04:11:26;;;;;;;20.20;9.48;;;;;;;-0.40;90.39;98052.31;5094029;28;20032;-72
2021/01/03 04:13:52;;;;;;;13.50;7.93;;;;;;;-0.34;90.10;98057.06;5095849;28;20054;-71
2021/01/03 04:16:17;;;;;;;16.05;9.10;;;;;;;-0.40;90.17;98054.16;5076357;28;20391;-72
2021/01/03 04:18:44;;;;;;;16.27;8.63;;;;;;;-0.39;90.40;98055.81;5055547;28;20028;-72
2021/01/03 04:21:11;;;;;;;19.10;9.40;;;;;;;-0.52;90.78;98043.75;5068952;28;20268;-72
2021/01/03 04:23:37;;;;;;;18.95;9.90;;;;;;;-0.35;90.73;98060.69;5066191;28;20032;-72
2021/01/03 04:26:02;;;;;;;14.70;8.52;;;;;;;-0.59;90.55;98033.91;5058565;28;20519;-72
2021/01/03 04:28:27;;;;;;;15.90;8.68;;;;;;;-0.46;90.48;98051.13;5072157;28;20497;-72
2021/01/03 04:30:53;;;;;;;17.83;8.90;;;;;;;-0.42;90.42;98048.16;5061501;28;20029;-72
2021/01/03 04:33:18;;;;;;;16.00;8.82;;;;;;;-0.50;90.21;98043.59;5061040;28;20108;-72
2021/01/03 04:35:43;;;;;;;15.48;8.25;;;;;;;-0.45;90.03;98059.91;5066529;28;20033;-72
2021/01/03 04:38:08;;;;;;;20.42;8.80;;;;;;;-0.43;90.27;98057.13;5056471;28;20556;-72
2021/01/03 04:40:34;;;;;;;18.67;9.45;;;;;;;-0.53;90.57;98051.88;5058728;28;20033;-72
2021/01/03 04:43:02;;;;;;;19.40;9.48;;;;;;;-0.54;90.73;98056.34;5059568;28;20058;-72
2021/01/03 04:45:36;;;;;;;17.55;9.60;;;;;;;-0.52;90.70;98062.38;5060494;28;20078;-73
2021/01/03 04:48:07;;;;;;;18.08;10.02;;;;;;;-0.39;90.91;98069.09;5061303;28;20104;-72
2021/01/03 04:50:33;;;;;;;17.45;9.15;;;;;;;-0.42;90.69;98062.25;5066980;28;20059;-72
2021/01/03 04:53:23;;;;;;;17.92;9.27;;;;;;;-0.40;90.53;98067.44;5068405;28;20248;-72
2021/01/03 04:55:56;;;;;;;18.02;9.40;;;;;;;-0.47;90.79;98073.38;5056158;28;20063;-72
2021/01/03 04:58:45;;;;;;;18.05;9.43;;;;;;;-0.40;90.97;98068.28;5055004;28;20033;-72
2021/01/03 05:01:48;;;;;;;16.35;9.10;;;;;;;-0.40;90.44;98084.22;5055758;28;20029;-72
2021/01/03 05:04:35;;;;;;;19.25;9.20;;;;;;;-0.49;90.84;98078.00;5050843;28;20028;-72
2021/01/03 05:07:14;;;;;;;18.73;9.85;;;;;;;-0.46;90.61;98075.03;5053210;28;20406;-72
2021/01/03 05:09:39;;;;;;;13.57;7.38;;;;;;;-0.53;91.38;98078.44;5073197;28;20032;-72
2021/01/03 05:12:27;;;;;;;18.33;9.32;;;;;;;-0.62;90.81;98068.75;5061669;28;20384;-71
2021/01/03 05:15:08;;;;;;;16.45;9.15;;;;;;;-0.46;90.92;98077.69;5056355;28;20070;-72
2021/01/03 05:17:34;;;;;;;18.00;9.43;;;;;;;-0.54;90.97;98071.47;5086104;28;20035;-72
2021/01/03 05:19:59;;;;;;;17.77;9.10;;;;;;;-0.61;90.76;98073.88;5070116;28;20033;-72
2021/01/03 05:22:36;;;;;;;17.48;9.48;;;;;;;-0.63;90.75;98056.41;5054329;28;20633;-72
2021/01/03 05:25:04;;;;;;;17.25;9.20;;;;;;;-0.40;90.80;98089.53;5062142;28;20009;-72
2021/01/03 05:27:30;;;;;;;18.30;9.82;;;;;;;-0.54;90.97;98077.63;5073311;28;20037;-72
2021/01/03 05:30:17;;;;;;;18.40;9.70;;;;;;;-0.41;90.85;98090.53;5066065;28;20028;-72
2021/01/03 05:32:44;;;;;;;17.33;9.60;;;;;;;-0.54;90.86;98082.94;5062007;28;20020;-72
2021/01/03 05:35:26;;;;;;;16.35;9.75;;;;;;;-0.48;90.94;98092.09;5071154;28;20060;-72
2021/01/03 05:37:54;;;;;;;15.30;9.05;;;;;;;-0.47;90.68;98099.13;5072306;28;20021;-72
2021/01/03 05:40:51;;;;;;;16.02;9.10;;;;;;;-0.56;91.30;98095.53;5074101;28;20127;-72
2021/01/03 05:43:22;;;;;;;18.95;9.40;;;;;;;-0.53;91.50;98095.22;5055891;28;20417;-72
2021/01/03 05:46:03;;;;;;;16.80;9.25;;;;;;;-0.50;91.30;98091.41;5072382;28;20027;-72
2021/01/03 05:48:40;;;;;;;15.48;8.65;;;;;;;-0.52;91.58;98096.06;5067784;28;20036;-72
2021/01/03 05:51:28;;;;;;;20.67;10.30;;;;;;;-0.55;91.48;98093.69;5072666;28;20398;-72
2021/01/03 05:54:02;;;;;;;17.83;9.95;;;;;;;-0.60;91.50;98091.50;5052877;28;20462;-71
2021/01/03 05:56:28;;;;;;;17.40;9.55;;;;;;;-0.60;91.67;98088.00;5068895;28;20049;-72
2021/01/03 05:58:54;;;;;;;16.38;9.40;;;;;;;-0.56;91.75;98090.22;5072221;28;20032;-72
2021/01/03 06:01:26;;;;;;;20.63;10.07;;;;;;;-0.54;91.55;98093.56;5061543;28;20501;-72
2021/01/03 06:04:21;;;;;;;19.95;10.63;;;;;;;-0.51;91.34;98093.25;5072629;28;20054;-73
2021/01/03 06:06:49;;;;;;;17.63;9.20;;;;;;;-0.54;91.33;98088.25;5051670;28;20119;-73
2021/01/03 06:09:17;;;;;;;18.40;9.27;;;;;;;-0.60;91.51;98072.06;5063637;28;20042;-70
2021/01/03 06:12:00;;;;;;;18.42;10.07;;;;;;;-0.60;91.81;98088.00;5068717;28;20039;-71
2021/01/03 06:14:27;;;;;;;16.73;9.23;;;;;;;-0.52;91.24;98101.38;5066451;28;20038;-71
2021/01/03 06:17:04;;;;;;;17.65;9.65;;;;;;;-0.56;91.30;98102.66;5053522;28;20039;-70
2021/01/03 06:19:35;;;;;;;18.23;9.82;;;;;;;-0.68;91.75;98092.25;5053040;28;20035;-71
2021/01/03 06:22:12;;;;;;;19.88;10.20;;;;;;;-0.60;91.72;98103.94;5054429;28;20029;-71
2021/01/03 06:24:41;;;;;;;19.55;10.45;;;;;;;-0.59;92.46;98102.97;5056181;28;20152;-71
2021/01/03 06:27:19;;;;;;;21.65;11.48;;;;;;;-0.58;91.92;98091.34;5064777;28;20107;-71
2021/01/03 06:30:02;;;;;;;19.20;10.15;;;;;;;-0.65;92.06;98090.28;5053239;28;20104;-71
2021/01/03 06:32:59;;;;;;;18.92;9.98;;;;;;;-0.64;91.71;98098.09;5069493;28;20483;-71
2021/01/03 06:35:38;;;;;;;21.33;11.20;;;;;;;-0.57;92.00;98098.34;5069091;28;20040;-71
2021/01/03 06:38:34;;;;;;;21.10;10.50;;;;;;;-0.54;91.71;98098.88;5067740;28;20108;-71
2021/01/03 06:41:14;;;;;;;18.38;10.27;;;;;;;-0.60;92.03;98080.88;5052618;28;20064;-71
2021/01/03 06:44:14;;;;;;;18.35;10.13;;;;;;;-0.58;91.70;98083.38;5062510;28;20028;-72
2021/01/03 06:46:54;;;;;;;19.05;10.18;;;;;;;-0.54;91.57;98090.06;5072503;28;20032;-71
2021/01/03 06:49:44;;;;;;;18.33;10.02;;;;;;;-0.58;91.67;98084.19;5066872;28;20032;-71
2021/01/03 06:52:30;;;;;;;18.17;9.63;;;;;;;-0.53;91.41;98092.56;5062286;28;20032;-74
2021/01/03 06:55:22;;;;;;;20.10;10.63;;;;;;;-0.60;91.16;98088.00;5066395;28;20036;-71
2021/01/03 06:58:09;;;;;;;21.35;10.68;;;;;;;-0.54;91.20;98098.88;5054184;28;22298;-74
2021/01/03 07:00:50;;;;;;;18.38;9.63;;;;;;;-0.66;91.30;98073.50;5072134;28;20017;-73
2021/01/03 07:03:33;;;;;;;20.38;9.57;;;;;;;-0.58;91.68;98094.00;5077211;28;20025;-64
2021/01/03 07:06:05;;;;;;;20.08;9.95;;;;;;;-0.56;91.31;98092.88;5085297;28;20544;-72
2021/01/03 07:08:40;;;;;;;19.20;9.85;;;;;;;-0.51;91.29;98092.41;5075363;28;20028;-73
2021/01/03 07:11:42;;;;;;;19.33;10.18;;;;;;;-0.57;91.33;98090.38;5091445;28;20032;-70
2021/01/03 07:14:12;;;;;;;19.50;9.57;;;;;;;-0.53;91.36;98089.06;5087210;28;20107;-72
2021/01/03 07:16:56;;;;;;;18.48;9.85;;;;;;;-0.59;91.00;98082.53;5075632;28;20033;-72
2021/01/03 07:19:50;;;;;;;18.90;9.82;;;;;;;-0.52;90.79;98094.25;5076283;28;20478;-67
2021/01/03 07:22:24;;;;;;;16.23;9.30;;;;;;;-0.47;90.88;98093.81;5073411;28;20111;-72
2021/01/03 07:24:49;;;;;;;18.42;9.75;;;;;;;-0.43;90.95;98095.16;5064911;28;20498;-76
2021/01/03 07:27:29;;;;;;;16.13;9.05;;;;;;;-0.36;90.85;98092.75;5060257;28;20024;-68
2021/01/03 07:29:54;;;;;;;17.48;9.10;;;;;;;-0.25;90.13;98090.66;5052720;28;20028;-73
2021/01/03 07:32:21;;;;;;;17.17;8.98;;;;;;;-0.35;89.42;98070.47;5052790;28;20441;-72
2021/01/03 07:34:52;;;;;;;18.00;9.75;;;;;;;-0.14;89.56;98099.41;5060446;28;20443;-73
2021/01/03 07:37:26;;;;;;;18.95;10.07;;;;;;;-0.12;89.01;98095.59;5051226;28;20394;-73
2021/01/03 07:40:13;;;;;;;18.08;9.57;;;;;;;-0.05;89.27;98096.66;5052241;28;20128;-75
2021/01/03 07:42:44;;;;;;;17.70;8.90;;;;;;;0.03;88.93;98103.88;5051702;28;20032;-74
2021/01/03 07:45:19;;;;;;;17.10;9.13;;;;;;;0.11;89.07;98103.13;5051958;28;20605;-75
2021/01/03 07:47:46;;;;;;;16.58;8.88;;;;;;;0.11;88.50;98103.94;5058153;28;20064;-74
2021/01/03 07:50:17;;;;;;;17.83;9.80;;;;;;;0.32;88.59;98122.22;5070930;28;20024;-69
2021/01/03 07:52:46;;;;;;;14.00;8.32;;;;;;;0.42;88.03;98122.13;5069081;28;20032;-69
2021/01/03 07:55:24;;;;;;;15.52;8.70;;;;;;;0.41;87.84;98115.94;5062663;28;20363;-74
2021/01/03 07:58:04;;;;;;;16.65;8.90;;;;;;;0.33;87.37;98107.09;5055272;28;20108;-69
2021/01/03 08:00:32;;;;;;;15.60;9.02;;;;;;;0.41;87.37;98110.63;5056887;28;20429;-69
2021/01/03 08:03:02;;;;;;;14.95;8.35;;;;;;;0.53;86.46;98132.50;5061415;28;20364;-69
2021/01/03 08:05:29;;;;;;;14.63;8.02;;;;;;;0.65;86.49;98133.06;5058625;28;20017;-70
2021/01/03 08:08:06;;;;;;;13.45;8.00;;;;;;;0.77;85.85;98131.00;5057542;28;20037;-70
2021/01/03 08:10:32;;;;;;;14.40;8.30;;;;;;;0.77;85.94;98128.34;5056752;28;20526;-70
2021/01/03 08:13:08;;;;;;;17.83;9.30;;;;;;;0.66;86.25;98124.13;5060348;28;20146;-70
2021/01/03 08:15:35;;;;;;;16.20;9.40;;;;;;;0.94;85.77;98126.56;5074451;28;20115;-70
2021/01/03 08:18:19;;;;;;;16.40;9.45;;;;;;;1.03;85.31;98137.13;5064582;28;20064;-70
2021/01/03 08:20:45;;;;;;;17.60;8.77;;;;;;;0.95;84.95;98122.94;5056548;28;20111;-69
2021/01/03 08:23:26;;;;;;;15.05;8.70;;;;;;;1.17;85.09;98138.34;5072060;28;20032;-70
2021/01/03 08:26:09;;;;;;;15.77;8.40;;;;;;;1.17;85.18;98124.19;5086692;28;20389;-70
2021/01/03 08:28:38;;;;;;;15.80;8.23;;;;;;;1.13;85.27;98126.34;5068950;28;20074;-69
2021/01/03 08:31:05;;;;;;;17.75;8.82;;;;;;;0.91;85.47;98111.75;5072231;28;20052;-70
2021/01/03 08:33:37;;;;;;;15.45;8.75;;;;;;;0.87;86.07;98140.53;5083742;28;20033;-69
2021/01/03 08:36:22;;;;;;;13.90;8.45;;;;;;;0.81;86.22;98133.19;5087913;28;20135;-71
2021/01/03 08:38:48;;;;;;;15.32;8.27;;;;;;;0.83;86.08;98135.69;5079896;28;20083;-71
2021/01/03 08:41:27;;;;;;;16.17;9.05;;;;;;;0.93;85.69;98130.25;5077397;28;20048;-78
2021/01/03 08:43:52;;;;;;;16.67;8.30;;;;;;;0.95;86.12;98133.59;5081672;28;20027;-70
2021/01/03 08:46:28;;;;;;;14.45;7.75;;;;;;;1.00;86.23;98145.44;5075600;28;20017;-71
2021/01/03 08:49:02;;;;;;;16.55;9.10;;;;;;;0.90;86.01;98151.88;5080495;28;20032;-70
2021/01/03 08:51:28;;;;;;;13.57;7.97;;;;;;;0.86;86.40;98138.03;5076597;28;20031;-69
2021/01/03 08:54:01;;;;;;;15.35;8.68;;;;;;;0.72;86.58;98128.78;5070094;28;20450;-69
2021/01/03 08:56:31;;;;;;;18.38;8.73;;;;;;;0.81;86.72;98150.97;5081366;28;20043;-70
2021/01/03 08:58:56;;;;;;;15.88;8.55;;;;;;;0.84;86.67;98156.00;5069612;28;20021;-70
2021/01/03 09:01:28;;;;;;;14.73;8.35;;;;;;;0.83;86.74;98157.81;5082239;28;20034;-70
2021/01/03 09:03:58;;;;;;;15.07;8.43;;;;;;;0.86;87.03;98157.53;5072105;28;20036;-70
2021/01/03 09:06:24;;;;;;;17.10;8.57;;;;;;;0.86;86.83;98164.66;5079067;28;20016;-71
2021/01/03 09:08:50;;;;;;;14.93;8.45;;;;;;;0.99;86.67;98170.38;5082109;28;20056;-70
2021/01/03 09:11:24;;;;;;;15.85;8.52;;;;;;;0.95;86.42;98168.22;5081165;28;20402;-69
2021/01/03 09:13:54;;;;;;;16.58;8.88;;;;;;;1.02;86.15;98155.91;5073907;28;20054;-69
2021/01/03 09:16:33;;;;;;;17.85;9.27;;;;;;;0.97;86.46;98153.75;5087052;28;20033;-71
2021/01/03 09:19:11;;;;;;;;;;;;;;;1.18;85.99;98163.16;5061371;28;20040;-73
2021/01/03 09:21:47;;;;;;;17.67;8.75;;;;;;;1.22;85.66;98169.84;5064370;28;19912;-69
2021/01/03 09:24:19;;;;;;;16.52;8.80;;;;;;;1.31;85.16;98172.38;5067542;28;20061;-76
2021/01/03 09:26:45;;;;;;;16.60;9.32;;;;;;;1.37;85.13;98176.25;5063271;28;20025;-72
2021/01/03 09:29:19;;;;;;;15.85;8.90;;;;;;;1.37;84.49;98168.25;5066118;28;20036;-73
2021/01/03 09:31:57;;;;;;;16.15;9.48;;;;;;;1.51;84.31;98172.94;5064049;28;20138;-74
2021/01/03 09:34:51;;;;;;;12.98;7.93;;;;;;;1.54;83.99;98185.13;5055621;28;20483;-75
2021/01/03 09:37:22;;;;;;;15.18;8.32;;;;;;;1.60;83.82;98186.31;5064870;28;20096;-72
2021/01/03 09:40:18;;;;;;;13.93;7.72;;;;;;;1.63;83.38;98188.66;5058978;28;20044;-72
2021/01/03 09:42:52;;;;;;;13.73;7.85;;;;;;;1.73;83.70;98186.69;5054135;28;20390;-72
2021/01/03 09:45:24;;;;;;;12.75;7.82;;;;;;;1.82;83.78;98185.72;5071325;28;20020;-73
2021/01/03 09:47:49;;;;;;;16.77;8.35;;;;;;;1.75;82.87;98185.50;5064202;28;20035;-71
2021/01/03 09:50:53;;;;;;;11.63;7.72;;;;;;;1.87;82.48;98180.72;5059256;28;20028;-70
2021/01/03 09:53:31;;;;;;;12.30;7.47;;;;;;;2.18;81.92;98185.44;5069560;28;20447;-71
2021/01/03 09:56:07;;;;;;;14.48;7.57;;;;;;;2.34;81.06;98185.44;5064160;28;20028;-71
2021/01/03 09:58:34;;;;;;;19.35;8.73;;;;;;;2.28;80.67;98183.47;5060647;28;20383;-73
2021/01/03 10:00:59;;;;;;;15.27;8.10;;;;;;;2.31;80.01;98185.78;5052850;28;20112;-71
2021/01/03 10:03:35;;;;;;;14.20;8.07;;;;;;;2.10;81.28;98182.78;5051353;28;20056;-69
2021/01/03 10:06:15;;;;;;;14.82;8.00;;;;;;;2.19;80.66;98187.09;5063306;28;20021;-70
2021/01/03 10:08:42;;;;;;;12.75;7.55;;;;;;;2.20;81.20;98183.44;5065353;28;20536;-71
2021/01/03 10:11:08;;;;;;;13.23;7.00;;;;;;;2.20;80.38;98180.75;5063487;28;20036;-72
2021/01/03 10:13:34;;;;;;;13.65;7.75;;;;;;;2.21;80.41;98176.28;5061630;28;20471;-71
2021/01/03 10:16:17;;;;;;;11.40;7.22;;;;;;;2.35;80.53;98173.75;5052446;28;20029;-72
2021/01/03 10:18:43;;;;;;;11.68;7.35;;;;;;;2.31;81.04;98163.59;5068098;28;20396;-72
2021/01/03 10:21:28;;;;;;;12.40;7.15;;;;;;;2.36;80.95;98170.13;5067960;28;20036;-71
2021/01/03 10:23:56;;;;;;;13.10;7.05;;;;;;;2.31;80.62;98168.94;5056682;28;20043;-71
2021/01/03 10:26:40;;;;;;;11.95;7.15;;;;;;;2.22;80.23;98144.06;5056987;28;20024;-72
2021/01/03 10:29:06;;;;;;;13.95;7.35;;;;;;;2.37;80.46;98173.59;5056148;28;20568;-72
2021/01/03 10:31:48;;;;;;;13.90;8.30;;;;;;;2.44;80.55;98165.75;5049459;28;20037;-72
2021/01/03 10:34:17;;;;;;;13.50;8.38;;;;;;;2.18;80.72;98180.13;5048955;28;20036;-72
2021/01/03 10:36:43;;;;;;;16.40;8.70;;;;;;;2.33;80.64;98172.25;5057097;28;20037;-72
2021/01/03 10:39:10;;;;;;;14.55;8.43;;;;;;;2.35;80.17;98168.41;5062016;28;20789;-72
2021/01/03 10:41:37;;;;;;;13.15;7.28;;;;;;;2.19;80.59;98177.25;5062343;28;20032;-72
2021/01/03 10:44:04;;;;;;;15.15;8.85;;;;;;;2.29;80.62;98179.78;5065403;28;20092;-71
2021/01/03 10:46:30;;;;;;;16.83;8.75;;;;;;;2.28;80.64;98169.25;5050237;28;20024;-72
2021/01/03 10:48:55;;;;;;;14.93;8.85;;;;;;;2.27;80.08;98171.09;5053532;28;20541;-72
2021/01/03 10:51:36;;;;;;;19.65;8.52;;;;;;;2.30;80.80;98161.91;5050220;28;20418;-71
2021/01/03 10:54:07;;;;;;;13.95;8.57;;;;;;;2.23;80.61;98136.88;5049268;28;20029;-70
2021/01/03 10:56:33;;;;;;;16.95;8.48;;;;;;;2.33;81.11;98161.59;5063675;28;20123;-71
2021/01/03 10:58:58;;;;;;;14.68;8.43;;;;;;;2.41;79.83;98162.44;5067944;28;20099;-71
2021/01/03 11:01:24;;;;;;;15.48;9.57;;;;;;;2.14;80.93;98152.91;5063965;28;20107;-72
2021/01/03 11:03:50;;;;;;;13.80;7.88;;;;;;;2.40;80.90;98163.41;5049681;28;20509;-71
2021/01/03 11:06:15;;;;;;;17.88;8.70;;;;;;;2.17;80.64;98165.09;5049495;28;20021;-71
2021/01/03 11:08:41;;;;;;;18.85;9.30;;;;;;;2.22;81.65;98164.59;5052080;28;20025;-71
2021/01/03 11:11:07;;;;;;;12.90;8.35;;;;;;;2.06;81.56;98168.91;5048761;28;20036;-72
2021/01/03 11:13:33;;;;;;;20.40;9.55;;;;;;;2.04;82.29;98162.06;5049931;28;20486;-71
2021/01/03 11:15:59;;;;;;;14.70;8.52;;;;;;;2.00;82.26;98155.41;5054492;28;20017;-71
2021/01/03 11:18:24;;;;;;;14.23;8.40;;;;;;;1.92;82.20;98169.56;5062214;28;20036;-71
2021/01/03 11:20:51;;;;;;;13.90;7.70;;;;;;;1.79;82.59;98156.72;5062782;28;20036;-71
2021/01/03 11:23:16;;;;;;;18.77;8.98;;;;;;;1.85;82.36;98164.03;5068871;28;20382;-71
2021/01/03 11:25:45;;;;;;;13.90;8.13;;;;;;;1.71;82.80;98157.53;5064584;28;20020;-71
2021/01/03 11:28:10;;;;;;;13.87;8.43;;;;;;;1.73;82.87;98157.38;5069897;28;20107;-71
2021/01/03 11:30:35;;;;;;;17.63;9.93;;;;;;;1.70;83.98;98160.34;5065587;28;20369;-71
2021/01/03 11:33:00;;;;;;;13.85;8.55;;;;;;;1.65;83.80;98157.31;5061990;28;20059;-72
2021/01/03 11:35:26;;;;;;;14.07;8.50;;;;;;;1.68;83.63;98151.69;5052973;28;20456;-72
2021/01/03 11:37:51;;;;;;;12.88;8.00;;;;;;;1.82;82.83;98145.72;5083139;28;20492;-72
2021/01/03 11:40:17;;;;;;;15.48;8.80;;;;;;;1.80;83.09;98155.69;5053684;28;20037;-71
2021/01/03 11:42:42;;;;;;;16.90;9.20;;;;;;;1.69;83.41;98153.34;5061216;28;20103;-71
2021/01/03 11:45:12;;;;;;;15.13;8.57;;;;;;;1.53;83.66;98138.13;5062186;28;20549;-72
2021/01/03 11:47:38;;;;;;;16.15;8.55;;;;;;;1.61;83.39;98143.50;5063938;28;20028;-72
2021/01/03 11:50:06;;;;;;;14.80;8.55;;;;;;;1.64;84.35;98155.66;5067801;28;20031;-72